createdAt,value
2019-04-05T00:01:04.423Z,99852.25
2019-04-05T00:03:34.919Z,99850.44
2019-04-05T00:06:05.860Z,99849.92
2019-04-05T00:08:36.846Z,99853.95
2019-04-05T00:11:07.530Z,99852.65
2019-04-05T00:13:38.366Z,99850.47
2019-04-05T00:16:10.025Z,99852.55
2019-04-05T00:18:40.651Z,99850.41
2019-04-05T00:21:11.386Z,99854.59
2019-04-05T00:23:42.221Z,99858.94
2019-04-05T00:26:13.056Z,99859.34
2019-04-05T00:28:43.486Z,99861.39
2019-04-05T00:31:14.315Z,99858.80
2019-04-05T00:33:45.148Z,99863.75
2019-04-05T00:36:15.580Z,99868.05
2019-04-05T00:38:46.521Z,99864.00
2019-04-05T00:41:17.454Z,99863.18
2019-04-05T00:43:48.398Z,99868.46
2019-04-05T00:46:19.275Z,99869.28
2019-04-05T00:48:50.070Z,99869.28
2019-04-05T00:51:20.899Z,99870.14
2019-04-05T00:53:51.946Z,99869.05
2019-04-05T00:56:22.792Z,99868.82
2019-04-05T00:58:53.527Z,99871.58
2019-04-05T01:01:23.939Z,99861.98
2019-04-05T01:03:54.875Z,99860.58
2019-04-05T01:06:25.404Z,99864.23
2019-04-05T01:08:56.342Z,99862.20
2019-04-05T01:11:27.287Z,99856.59
2019-04-05T01:13:58.839Z,99856.45
2019-04-05T01:16:29.199Z,99865.14
2019-04-05T01:18:59.997Z,99863.59
2019-04-05T01:21:34.313Z,99862.30
2019-04-05T01:24:05.460Z,99866.27
2019-04-05T01:26:36.109Z,99855.39
2019-04-05T01:29:06.828Z,99862.53
2019-04-05T01:31:37.465Z,99854.16
2019-04-05T01:34:08.393Z,99859.84
2019-04-05T01:36:39.226Z,99858.05
2019-04-05T01:39:10.064Z,99857.05
2019-04-05T01:41:40.898Z,99854.69
2019-04-05T01:44:11.781Z,99854.81
2019-04-05T01:46:42.569Z,99864.84
2019-04-05T01:49:13.305Z,99863.64
2019-04-05T01:51:43.946Z,99868.62
2019-04-05T01:54:14.669Z,99866.19
2019-04-05T01:56:46.122Z,99872.50
2019-04-05T01:59:17.058Z,99871.67
2019-04-05T02:01:48.002Z,99873.23
2019-04-05T02:04:18.837Z,99876.09
2019-04-05T02:06:49.566Z,99878.00
2019-04-05T02:09:20.508Z,99872.66
2019-04-05T02:11:54.208Z,99881.33
2019-04-05T02:14:25.141Z,99884.22
2019-04-05T02:16:56.083Z,99877.36
2019-04-05T02:19:26.612Z,99882.17
2019-04-05T02:21:57.550Z,99882.17
2019-04-05T02:24:28.398Z,99890.69
2019-04-05T02:26:59.537Z,99887.37
2019-04-05T02:29:30.037Z,99890.25
2019-04-05T02:32:01.012Z,99890.11
2019-04-05T02:34:33.706Z,99896.19
2019-04-05T02:37:04.617Z,99893.55
2019-04-05T02:39:35.463Z,99890.41
2019-04-05T02:42:06.286Z,99894.27
2019-04-05T02:44:37.129Z,99897.51
2019-04-05T02:47:07.957Z,99899.66
2019-04-05T02:49:38.795Z,99910.08
2019-04-05T02:52:09.542Z,99908.41
2019-04-05T02:54:40.571Z,99915.03
2019-04-05T02:57:11.503Z,99920.00
2019-04-05T02:59:42.348Z,99918.75
2019-04-05T03:02:13.077Z,99917.09
2019-04-05T03:04:43.750Z,99920.56
2019-04-05T03:07:17.313Z,99929.99
2019-04-05T03:09:48.571Z,99930.37
2019-04-05T03:12:19.351Z,99930.82
2019-04-05T03:14:50.405Z,99927.89
2019-04-05T03:17:21.176Z,99931.58
2019-04-05T03:19:52.412Z,99939.05
2019-04-05T03:22:22.839Z,99941.00
2019-04-05T03:24:53.674Z,99943.41
2019-04-05T03:27:30.149Z,99948.17
2019-04-05T03:30:00.895Z,99947.84
2019-04-05T03:32:32.053Z,99949.91
2019-04-05T03:35:02.790Z,99952.52
2019-04-05T03:37:33.224Z,99956.48
2019-04-05T03:40:04.943Z,99955.15
2019-04-05T03:42:35.326Z,99953.72
2019-04-05T03:45:07.218Z,99952.59
2019-04-05T03:47:37.681Z,99958.00
2019-04-05T03:50:08.094Z,99957.83
2019-04-05T03:52:38.535Z,99961.92
2019-04-05T03:55:09.340Z,99966.82
2019-04-05T03:57:40.492Z,99975.72
2019-04-05T04:00:11.304Z,99982.85
2019-04-05T04:02:42.262Z,99987.39
2019-04-05T04:05:13.203Z,99990.75
2019-04-05T04:07:44.132Z,99988.61
2019-04-05T04:10:19.167Z,99981.55
2019-04-05T04:12:50.314Z,99993.05
2019-04-05T04:15:21.249Z,99999.72
2019-04-05T04:17:52.091Z,100005.13
2019-04-05T04:20:26.028Z,99995.42
2019-04-05T04:22:56.529Z,99997.70
2019-04-05T04:25:27.871Z,100001.42
2019-04-05T04:27:58.281Z,100006.33
2019-04-05T04:30:29.843Z,99999.41
2019-04-05T04:33:01.298Z,100003.94
2019-04-05T04:35:32.029Z,100006.94
2019-04-05T04:38:02.566Z,100012.03
2019-04-05T04:40:33.308Z,100003.53
2019-04-05T04:43:05.667Z,100003.01
2019-04-05T04:45:36.394Z,99995.35
2019-04-05T04:48:07.236Z,99992.82
2019-04-05T04:50:38.173Z,99996.69
2019-04-05T04:53:09.208Z,99997.02
2019-04-05T04:55:39.776Z,99991.14
2019-04-05T04:58:10.578Z,99999.37
2019-04-05T05:00:41.512Z,99998.59
2019-04-05T05:03:12.350Z,99997.77
2019-04-05T05:05:43.289Z,99994.30
2019-04-05T05:08:14.438Z,99994.84
2019-04-05T05:10:45.373Z,99995.47
2019-04-05T05:13:15.806Z,100003.84
2019-04-05T05:15:46.741Z,100004.84
2019-04-05T05:18:17.575Z,100009.72
2019-04-05T05:20:48.510Z,100007.16
2019-04-05T05:23:20.370Z,100006.04
2019-04-05T05:25:51.219Z,100004.91
2019-04-05T05:28:21.868Z,100010.44
2019-04-05T05:30:52.672Z,100014.77
2019-04-05T05:33:23.516Z,100005.77
2019-04-05T05:35:54.446Z,100014.66
2019-04-05T05:38:25.594Z,100013.66
2019-04-05T05:40:56.337Z,100015.70
2019-04-05T05:43:27.161Z,100016.27
2019-04-05T05:45:57.995Z,100014.98
2019-04-05T05:48:30.893Z,100014.56
2019-04-05T05:51:01.205Z,100011.28
2019-04-05T05:53:32.146Z,100015.41
2019-04-05T05:56:03.179Z,100022.67
2019-04-05T05:58:34.123Z,100023.48
2019-04-05T06:01:04.959Z,100028.68
2019-04-05T06:03:35.899Z,100019.63
2019-04-05T06:06:06.839Z,100021.65
2019-04-05T06:08:37.574Z,100023.63
2019-04-05T06:11:08.410Z,100025.63
2019-04-05T06:13:39.340Z,100025.99
2019-04-05T06:16:09.870Z,100021.28
2019-04-05T06:18:41.729Z,100026.77
2019-04-05T06:21:13.493Z,100027.84
2019-04-05T06:23:44.223Z,100022.57
2019-04-05T06:26:14.967Z,100030.42
2019-04-05T06:28:46.290Z,100032.63
2019-04-05T06:31:20.417Z,100037.88
2019-04-05T06:33:51.356Z,100031.59
2019-04-05T06:36:22.190Z,100036.23
2019-04-05T06:38:53.130Z,100040.59
2019-04-05T06:41:23.969Z,100036.17
2019-04-05T06:43:54.903Z,100039.02
2019-04-05T06:46:25.742Z,100033.66
2019-04-05T06:48:56.574Z,100038.84
2019-04-05T06:51:27.514Z,100045.83
2019-04-05T06:53:58.449Z,100041.51
2019-04-05T06:56:29.296Z,100047.01
2019-04-05T06:59:00.125Z,100043.28
2019-04-05T07:01:31.063Z,100050.74
2019-04-05T07:04:02.918Z,100049.27
2019-04-05T07:06:33.656Z,100057.10
2019-04-05T07:09:05.823Z,100051.66
2019-04-05T07:11:36.227Z,100056.12
2019-04-05T07:14:07.093Z,100056.52
2019-04-05T07:16:37.828Z,100058.53
2019-04-05T07:19:08.652Z,100058.24
2019-04-05T07:21:39.592Z,100061.72
2019-04-05T07:24:10.426Z,100061.72
2019-04-05T07:26:41.170Z,100065.62
2019-04-05T07:29:11.995Z,100065.20
2019-04-05T07:31:42.940Z,100063.77
2019-04-05T07:34:13.781Z,100073.09
2019-04-05T07:36:44.609Z,100066.91
2019-04-05T07:39:15.547Z,100064.56
2019-04-05T07:41:46.287Z,100067.70
2019-04-05T07:44:17.019Z,100064.88
2019-04-05T07:46:47.827Z,100064.39
2019-04-05T07:49:18.687Z,100068.30
2019-04-05T07:51:49.835Z,100057.03
2019-04-05T07:54:20.572Z,100065.48
2019-04-05T07:56:51.289Z,100062.44
2019-04-05T07:59:22.442Z,100069.03
2019-04-05T08:01:52.870Z,100064.30
2019-04-05T08:04:23.707Z,100065.84
2019-04-05T08:06:56.004Z,100067.57
2019-04-05T08:09:26.715Z,100063.25
2019-04-05T08:11:57.646Z,100060.00
2019-04-05T08:14:28.480Z,100059.02
2019-04-05T08:16:59.239Z,100056.19
2019-04-05T08:19:30.354Z,100063.04
2019-04-05T08:22:01.087Z,100066.48
2019-04-05T08:24:32.026Z,100069.83
2019-04-05T08:27:02.798Z,100058.80
2019-04-05T08:29:33.595Z,100053.75
2019-04-05T08:32:14.423Z,100057.87
2019-04-05T08:34:37.110Z,100051.48
2019-04-05T08:37:07.982Z,100057.83
2019-04-05T08:39:38.798Z,100048.00
2019-04-05T08:42:11.055Z,100056.19
2019-04-05T08:44:43.221Z,100048.09
2019-04-05T08:47:13.871Z,100054.04
2019-04-05T08:49:44.692Z,100053.52
2019-04-05T08:52:15.409Z,100056.03
2019-04-05T08:54:46.365Z,100053.01
2019-04-05T08:57:17.201Z,100052.13
2019-04-05T08:59:48.035Z,100056.36
2019-04-05T09:02:18.670Z,100057.21
2019-04-05T09:04:49.632Z,100048.35
2019-04-05T09:07:20.264Z,100046.87
2019-04-05T09:09:51.182Z,100044.73
2019-04-05T09:12:21.943Z,100046.22
2019-04-05T09:14:52.842Z,100043.23
2019-04-05T09:17:23.759Z,100046.23
2019-04-05T09:19:54.636Z,100043.22
2019-04-05T09:22:25.451Z,100043.35
2019-04-05T09:24:56.119Z,100037.19
2019-04-05T09:27:27.042Z,100031.38
2019-04-05T09:29:57.931Z,100033.71
2019-04-05T09:32:29.004Z,100024.37
2019-04-05T09:34:59.939Z,100027.03
2019-04-05T09:37:30.878Z,100029.55
2019-04-05T09:40:01.753Z,100019.70
2019-04-05T09:42:32.296Z,100020.37
2019-04-05T09:45:03.692Z,100023.86
2019-04-05T09:47:34.219Z,100025.52
2019-04-05T09:50:06.657Z,100025.18
2019-04-05T09:52:39.990Z,100026.54
2019-04-05T09:55:11.340Z,100027.69
2019-04-05T09:57:42.279Z,100030.02
2019-04-05T10:00:20.904Z,100029.02
2019-04-05T10:02:51.731Z,100031.03
2019-04-05T10:05:22.570Z,100030.02
2019-04-05T10:07:55.468Z,100033.37
2019-04-05T10:10:25.571Z,100029.05
2019-04-05T10:12:56.409Z,100028.36
2019-04-05T10:15:27.342Z,100022.02
2019-04-05T10:17:58.289Z,100021.35
2019-04-05T10:20:29.149Z,100018.17
2019-04-05T10:23:00.059Z,100020.35
2019-04-05T10:25:30.890Z,100024.03
2019-04-05T10:28:01.735Z,100022.50
2019-04-05T10:30:32.484Z,100020.49
2019-04-05T10:33:03.300Z,100020.19
2019-04-05T10:35:34.241Z,100008.66
2019-04-05T10:38:05.382Z,100013.97
2019-04-05T10:40:36.934Z,100008.31
2019-04-05T10:43:07.666Z,100013.83
2019-04-05T10:45:38.509Z,100012.31
2019-04-05T10:48:09.236Z,100005.80
2019-04-05T10:50:39.977Z,100014.00
2019-04-05T10:53:10.715Z,100005.78
2019-04-05T10:55:41.539Z,100012.95
2019-04-05T10:58:12.581Z,100009.66
2019-04-05T11:00:43.518Z,100011.95
2019-04-05T11:03:14.465Z,100007.98
2019-04-05T11:05:45.394Z,100004.82
2019-04-05T11:08:16.236Z,100008.48
2019-04-05T11:10:47.170Z,100001.33
2019-04-05T11:13:17.913Z,100002.30
2019-04-05T11:15:48.743Z,100000.31
2019-04-05T11:18:21.074Z,100004.12
2019-04-05T11:20:52.052Z,100004.12
2019-04-05T11:23:22.893Z,99996.62
2019-04-05T11:25:53.720Z,99995.73
2019-04-05T11:28:24.555Z,99986.02
2019-04-05T11:30:55.388Z,99990.73
2019-04-05T11:33:26.240Z,99987.39
2019-04-05T11:35:57.990Z,99972.18
2019-04-05T11:38:28.826Z,99983.55
2019-04-05T11:40:59.553Z,99971.16
2019-04-05T11:43:31.381Z,99973.19
2019-04-05T11:46:02.200Z,99971.89
2019-04-05T11:48:35.420Z,99972.33
2019-04-05T11:51:05.880Z,99962.78
2019-04-05T11:53:36.705Z,99962.20
2019-04-05T11:56:14.449Z,99961.42
2019-04-05T11:58:41.292Z,99957.44
2019-04-05T12:01:16.774Z,99952.95
2019-04-05T12:03:47.216Z,99954.82
2019-04-05T12:06:17.875Z,99952.61
2019-04-05T12:08:48.616Z,99953.05
2019-04-05T12:11:19.528Z,99950.49
2019-04-05T12:13:50.354Z,99946.02
2019-04-05T12:16:21.193Z,99950.14
2019-04-05T12:18:51.933Z,99948.23
2019-04-05T12:21:22.769Z,99946.05
2019-04-05T12:23:53.594Z,99941.83
2019-04-05T12:26:24.638Z,99938.31
2019-04-05T12:28:55.388Z,99935.95
2019-04-05T12:31:26.907Z,99937.86
2019-04-05T12:33:57.345Z,99932.69
2019-04-05T12:36:28.203Z,99939.89
2019-04-05T12:38:59.041Z,99935.22
2019-04-05T12:41:32.013Z,99931.17
2019-04-05T12:44:01.991Z,99933.39
2019-04-05T12:46:32.857Z,99927.23
2019-04-05T12:49:03.694Z,99929.69
2019-04-05T12:51:34.551Z,99931.97
2019-04-05T12:54:05.474Z,99928.19
2019-04-05T12:56:36.404Z,99924.85
2019-04-05T12:59:07.348Z,99929.88
2019-04-05T13:01:38.289Z,99920.73
2019-04-05T13:04:09.225Z,99922.25
2019-04-05T13:06:42.291Z,99917.53
2019-04-05T13:09:13.368Z,99918.16
2019-04-05T13:11:44.084Z,99917.17
2019-04-05T13:14:16.145Z,99916.84
2019-04-05T13:16:49.386Z,99918.20
2019-04-05T13:19:18.988Z,99913.39
2019-04-05T13:21:49.680Z,99908.97
2019-04-05T13:24:20.625Z,99905.13
2019-04-05T13:26:51.455Z,99912.94
2019-04-05T13:29:22.292Z,99909.98
2019-04-05T13:31:53.128Z,99904.25
2019-04-05T13:34:26.002Z,99910.69
2019-04-05T13:36:59.338Z,99912.84
2019-04-05T13:39:30.371Z,99913.51
2019-04-05T13:42:01.713Z,99914.21
2019-04-05T13:44:33.142Z,99907.03
2019-04-05T13:47:06.537Z,99911.46
2019-04-05T13:49:38.545Z,99913.52
2019-04-05T13:52:11.160Z,99909.39
2019-04-05T13:54:41.724Z,99911.08
2019-04-05T13:57:12.659Z,99911.54
2019-04-05T13:59:44.774Z,99908.34
2019-04-05T14:02:15.395Z,99908.09
2019-04-05T14:04:48.967Z,99907.77
2019-04-05T14:07:23.440Z,99906.55
2019-04-05T14:09:52.171Z,99913.69
2019-04-05T14:12:22.993Z,99904.01
2019-04-05T14:14:53.936Z,99913.62
2019-04-05T14:17:24.784Z,99911.96
2019-04-05T14:19:56.015Z,99913.29
2019-04-05T14:22:26.949Z,99910.83
2019-04-05T14:24:58.217Z,99910.06
2019-04-05T14:27:29.131Z,99911.96
2019-04-05T14:30:00.595Z,99912.95
2019-04-05T14:32:32.454Z,99926.95
2019-04-05T14:35:03.480Z,99914.74
2019-04-05T14:37:33.888Z,99908.77
2019-04-05T14:40:07.146Z,99912.53
2019-04-05T14:42:37.740Z,99921.25
2019-04-05T14:45:08.594Z,99916.47
2019-04-05T14:47:41.500Z,99922.16
2019-04-05T14:50:11.582Z,99924.17
2019-04-05T14:52:42.303Z,99923.15
2019-04-05T14:55:13.051Z,99926.41
2019-04-05T14:57:45.619Z,99921.52
2019-04-05T15:00:17.284Z,99919.55
2019-04-05T15:02:47.909Z,99925.73
2019-04-05T15:05:20.995Z,99922.22
2019-04-05T15:07:54.802Z,99920.22
2019-04-05T15:10:25.298Z,99922.08
2019-04-05T15:12:56.773Z,99920.73
2019-04-05T15:15:27.505Z,99924.25
2019-04-05T15:17:58.551Z,99919.74
2019-04-05T15:20:29.483Z,99916.58
2019-04-05T15:23:00.425Z,99918.73
2019-04-05T15:25:31.157Z,99921.48
2019-04-05T15:28:02.003Z,99920.84
2019-04-05T15:30:32.940Z,99922.69
2019-04-05T15:33:04.287Z,99925.17
2019-04-05T15:35:34.942Z,99921.66
2019-04-05T15:38:05.853Z,99927.33
2019-04-05T15:40:36.684Z,99923.52
2019-04-05T15:43:07.522Z,99929.36
2019-04-05T15:45:38.871Z,99922.33
2019-04-05T15:48:09.805Z,99927.71
2019-04-05T15:50:42.589Z,99925.26
2019-04-05T15:53:13.470Z,99930.77
2019-04-05T15:55:44.159Z,99925.46
2019-04-05T15:58:15.000Z,99928.45
2019-04-05T16:00:46.038Z,99928.11
2019-04-05T16:03:16.979Z,99928.78
2019-04-05T16:05:47.814Z,99928.47
2019-04-05T16:08:18.952Z,99932.61
2019-04-05T16:10:49.581Z,99933.78
2019-04-05T16:13:20.426Z,99933.42
2019-04-05T16:15:51.292Z,99936.52
2019-04-05T16:18:24.351Z,99932.48
2019-04-05T16:20:57.132Z,99937.94
2019-04-05T16:23:27.772Z,99940.80
2019-04-05T16:25:58.597Z,99941.58
2019-04-05T16:28:29.341Z,99938.50
2019-04-05T16:31:00.271Z,99940.51
2019-04-05T16:33:31.115Z,99941.95
2019-04-05T16:36:01.851Z,99950.64
2019-04-05T16:38:32.774Z,99951.90
2019-04-05T16:41:03.731Z,99956.47
2019-04-05T16:43:34.446Z,99962.81
2019-04-05T16:46:05.899Z,99959.22
2019-04-05T16:48:36.325Z,99965.23
2019-04-05T16:51:07.140Z,99968.01
2019-04-05T16:53:39.642Z,99974.09
2019-04-05T16:56:10.167Z,99975.27
2019-04-05T16:58:40.994Z,99976.27
2019-04-05T17:01:11.784Z,99976.92
2019-04-05T17:03:42.670Z,99979.64
2019-04-05T17:06:13.511Z,99985.53
2019-04-05T17:08:45.476Z,99984.72
2019-04-05T17:11:16.162Z,99987.61
2019-04-05T17:13:48.252Z,99986.18
2019-04-05T17:16:18.711Z,99983.62
2019-04-05T17:18:49.739Z,99986.32
2019-04-05T17:21:20.774Z,99992.55
2019-04-05T17:23:51.416Z,99991.34
2019-04-05T17:26:22.404Z,99991.85
2019-04-05T17:28:53.181Z,99995.35
2019-04-05T17:31:24.030Z,99992.87
2019-04-05T17:33:54.542Z,99987.25
2019-04-05T17:36:25.277Z,99989.96
2019-04-05T17:38:56.112Z,99986.94
2019-04-05T17:41:26.962Z,99988.63
2019-04-05T17:43:57.893Z,99994.50
2019-04-05T17:46:28.731Z,99998.19
2019-04-05T17:48:59.607Z,99990.56
2019-04-05T17:51:30.115Z,99993.28
2019-04-05T17:54:00.924Z,99990.94
2019-04-05T17:56:31.556Z,99992.28
2019-04-05T17:59:02.308Z,99982.80
2019-04-05T18:01:33.037Z,99991.81
2019-04-05T18:04:03.758Z,99992.41
2019-04-05T18:06:34.491Z,99989.01
2019-04-05T18:09:06.627Z,99989.64
2019-04-05T18:11:37.013Z,99992.19
2019-04-05T18:14:07.823Z,99989.62
2019-04-05T18:16:38.754Z,99986.14
2019-04-05T18:19:09.591Z,99983.73
2019-04-05T18:21:40.431Z,99992.55
2019-04-05T18:24:11.280Z,99994.06
2019-04-05T18:26:42.121Z,99988.61
2019-04-05T18:29:12.582Z,99994.84
2019-04-05T18:31:42.998Z,99994.41
2019-04-05T18:34:13.417Z,99993.11
2019-04-05T18:36:44.119Z,99999.80
2019-04-05T18:39:15.193Z,99989.62
2019-04-05T18:41:45.887Z,99999.74
2019-04-05T18:44:16.395Z,99995.23
2019-04-05T18:46:46.980Z,100000.27
2019-04-05T18:49:17.800Z,100004.58
2019-04-05T18:51:48.611Z,99999.79
2019-04-05T18:54:19.490Z,99999.95
2019-04-05T18:56:49.900Z,100007.22
2019-04-05T18:59:20.338Z,100005.67
2019-04-05T19:01:50.730Z,100009.86
2019-04-05T19:04:21.203Z,99995.55
2019-04-05T19:06:51.795Z,100001.47
2019-04-05T19:09:22.455Z,100001.92
2019-04-05T19:11:52.891Z,100010.30
2019-04-05T19:14:23.305Z,100008.27
2019-04-05T19:16:53.801Z,100005.81
2019-04-05T19:19:24.269Z,100010.90
2019-04-05T19:21:54.697Z,100012.30
2019-04-05T19:24:25.102Z,100007.34
2019-04-05T19:26:55.544Z,100006.87
2019-04-05T19:29:26.057Z,100010.91
2019-04-05T19:49:42.250Z,100011.25
2019-04-05T19:52:12.706Z,100016.27
2019-04-05T19:54:43.108Z,100012.44
2019-04-05T19:57:13.695Z,100013.09
2019-04-05T19:59:44.209Z,100012.52
2019-04-05T20:02:14.718Z,100010.94
2019-04-05T20:04:45.201Z,100011.98
2019-04-05T20:07:15.722Z,100013.86
2019-04-05T20:09:46.203Z,100018.44
2019-04-05T20:12:16.730Z,100017.88
2019-04-05T20:14:47.145Z,100021.42
2019-04-05T20:17:17.707Z,100018.81
2019-04-05T20:19:48.235Z,100014.97
2019-04-05T20:22:18.757Z,100017.95
2019-04-05T20:24:49.170Z,100017.55
2019-04-05T20:27:19.597Z,100015.92
2019-04-05T20:29:50.034Z,100024.14
2019-04-05T20:32:20.500Z,100020.00
2019-04-05T20:34:50.947Z,100019.59
2019-04-05T20:37:21.670Z,100019.59
2019-04-05T20:39:52.615Z,100022.98
2019-04-05T20:42:23.447Z,100016.87
2019-04-05T20:44:54.284Z,100022.17
2019-04-05T20:47:25.227Z,100025.19
2019-04-05T20:49:56.134Z,100024.03
2019-04-05T20:52:26.901Z,100024.80
2019-04-05T20:54:57.382Z,100020.37
2019-04-05T20:57:27.908Z,100024.89
2019-04-05T21:00:00.158Z,100021.05
2019-04-05T21:02:30.587Z,100018.16
2019-04-05T21:05:01.174Z,100022.81
2019-04-05T21:07:31.715Z,100022.27
2019-04-05T21:10:02.171Z,100022.41
2019-04-05T21:12:32.730Z,100026.14
2019-04-05T21:15:03.474Z,100022.34
2019-04-05T21:17:34.045Z,100024.41
2019-04-05T21:20:06.081Z,100022.78
2019-04-05T21:22:36.812Z,100023.50
2019-04-05T21:25:08.145Z,100017.77
2019-04-05T21:27:38.857Z,100016.87
2019-04-05T21:30:11.654Z,100020.48
2019-04-05T21:32:42.261Z,100023.33
2019-04-05T21:35:12.936Z,100021.70
2019-04-05T21:37:43.648Z,100025.77
2019-04-05T21:40:14.462Z,100017.58
2019-04-05T21:42:45.103Z,100023.56
2019-04-05T21:45:15.736Z,100021.97
2019-04-05T21:47:46.727Z,100017.24
2019-04-05T21:50:17.393Z,100019.53
2019-04-05T21:52:48.126Z,100022.31
2019-04-05T21:55:18.718Z,100024.18
2019-04-05T21:57:49.407Z,100029.14
2019-04-05T22:00:28.793Z,100028.45
2019-04-05T22:02:59.830Z,100027.61
2019-04-05T22:05:30.776Z,100026.05
2019-04-05T22:08:01.604Z,100027.00
2019-04-05T22:10:32.565Z,100033.61
2019-04-05T22:13:04.558Z,100038.97
2019-04-05T22:15:35.646Z,100032.62
2019-04-05T22:18:06.255Z,100031.72
2019-04-05T22:20:36.948Z,100027.86
2019-04-05T22:23:07.779Z,100029.52
2019-04-05T22:25:38.621Z,100029.58
2019-04-05T22:28:09.248Z,100024.42
2019-04-05T22:30:40.186Z,100026.84
2019-04-05T22:33:11.134Z,100025.29
2019-04-05T22:35:41.766Z,100026.54
2019-04-05T22:38:12.474Z,100028.94
2019-04-05T22:40:43.125Z,100028.20
2019-04-05T22:43:13.865Z,100027.54
2019-04-05T22:45:44.693Z,100027.20
2019-04-05T22:48:15.310Z,100029.45
2019-04-05T22:50:45.956Z,100039.05
2019-04-05T22:53:16.707Z,100029.98
2019-04-05T22:55:47.415Z,100040.23
2019-04-05T22:58:18.468Z,100035.60
2019-04-05T23:00:49.109Z,100037.81
2019-04-05T23:03:19.832Z,100035.30
2019-04-05T23:05:50.445Z,100033.53
2019-04-05T23:08:21.225Z,100038.70
2019-04-05T23:10:51.933Z,100037.77
2019-04-05T23:13:22.571Z,100032.88
2019-04-05T23:15:53.306Z,100032.03
2019-04-05T23:18:23.930Z,100026.71
2019-04-05T23:20:54.652Z,100033.53
2019-04-05T23:23:25.428Z,100027.34
2019-04-05T23:25:56.060Z,100030.39
2019-04-05T23:28:26.646Z,100036.53
2019-04-05T23:30:57.273Z,100034.02
2019-04-05T23:33:30.868Z,100034.34
2019-04-05T23:36:01.519Z,100039.31
2019-04-05T23:38:32.316Z,100038.26
2019-04-05T23:41:04.285Z,100036.28
2019-04-05T23:43:35.160Z,100033.84
2019-04-05T23:46:05.756Z,100033.69
2019-04-05T23:48:36.452Z,100040.45
2019-04-05T23:51:07.166Z,100035.29
2019-04-05T23:53:37.905Z,100040.72
2019-04-05T23:56:08.613Z,100034.69
2019-04-05T23:58:39.230Z,100041.25
